Language selection

Weather shortcuts

Atlantic - Newfoundland: Past 24 Hour Conditions

 

West Chedabucto Bay - 44489

04:00 AM ADT 13 July 2024Buoy position: 45.49N 61.14W
Disclaimer

This table is a summary of hourly weather conditions for the past 24 hours.
Please note that these observations might not always be representative of weather conditions over their associated marine area.

Date / Time
(ADT)
Wind(knots) Wave height(m) Wave period(s) Pressure(kPa) Air tempC) Water tempC)
13 July 2024
4:00 WSW 10 gusts 10 0.12 4.1 101.9 18 18
3:00 WSW 6 gusts 6 0.12 2.9 101.9 18 17
2:00 WSW 4 gusts 5 0.12 3.9 102.0 16 17
1:00 WSW 8 gusts 10 0.13 3.6 102.0 17 16
0:00 WSW 8 gusts 9 0.15 2.6 102.0 17 17
12 July 2024
23:00 WSW 8 gusts 10 0.15 2.9 102.0 17 18
22:00 WSW 6 gusts 8 0.14 3.1 102.0 17 18
21:00 SW 6 gusts 7 0.13 3.3 102.0 18 19
20:00 SSW 6 gusts 8 0.12 4.5 102.0 19 18
19:00 NNW 8 gusts 8 0.13 3.6 102.0 22 18
18:00 NW 6 gusts 8 0.17 2.9 102.0 20 18
17:00 NNW 10 gusts 12 0.16 2.5 102.0 21 17
16:00 N 13 gusts 14 0.19 2.5 101.9 21 16
15:00 N 14 gusts 16 0.24 2.3 101.9 21 16
14:00 NNW 13 gusts 15 0.20 2.4 101.9 20 16
13:00 W 12 gusts 15 0.19 2.4 101.9 19 16
12:00 W 11 gusts 12 0.24 2.5 101.9 19 16
11:00 WSW 10 gusts 11 0.20 2.8 101.9 18 15
10:00 W 11 gusts 12 0.20 2.7 101.9 17 15
9:00 W 11 gusts 13 0.24 2.6 101.9 17 15
8:00 WSW 3 gusts 4 0.22 2.7 101.8 16 15
7:00 W 13 gusts 15 0.33 2.5 101.7 17 15
6:00 WSW 15 gusts 17 0.35 2.7 101.7 17 16
5:00 W 13 gusts 15 0.40 2.9 101.7 17 15
4:00 WSW 10 gusts 12 0.21 2.8 101.7 17 15

Zoom-in to make a selection

Map of Atlantic - Newfoundland marine weather areas Banquereau - 44139 East Chedabucto Bay – 44488 West Chedabucto Bay – 44489 Blanc-Sablon Airport Cap Whittle Chevery Natashquan Airport Heath Point Îles de la Madeleine Airport Miscou Island Eskasoni (First Nations) Grand Étang Ingonish Beach North Mountain St.Paul Island J.A. Douglas McCurdy Sydney Airport Charlottetown Airport East Point North Cape Argentia Berry Hill Bonavista Burgeo Cape Race Corner Brook Daniel's Harbour Englee Ferolle Point La Scie Port aux Basques Sagona Island St. Anthony Airport St. John's Int'l Airport St. Lawrence Stephenville Airport Twillingate Winterland Branch Hill Wreckhouse Grates Cove Pool's Island Marticot Island Long Pond Cartwright Airport Mary's Harbour
Legend:
buoy Buoy
land station Land Station

Atlantic - Newfoundland Area

Another Region

Features

New Predicting and Alerting Coastal Flooding Program

Find out about coastal flooding coverage, forecasts and warnings in your region

Date modified: